Time;durP1;ratioP1;P1;durP2;ratioP2;P2;SDS_P1;SDS_P2;PMS_P1;PMS_P2;Temp;Humidity;BMP_temperature;BMP_pressure;BME280_temperature;BME280_humidity;BME280_pressure;Samples;Min_cycle;Max_cycle;Signal;HPM_P1;HPM_P2
2024/03/04 00:05:35;;;;;;;4.27;3.17;;;;;;;11.52;43.13;92866.41;4936066;28;20215;-86
2024/03/04 00:08:31;;;;;;;4.33;2.87;;;;;;;11.52;43.02;92869.75;4919651;28;20212;-86
2024/03/04 00:31:33;;;;;;;4.10;2.37;;;;;;;11.53;43.21;92884.19;4883078;29;20290;-87
2024/03/04 00:37:56;;;;;;;3.80;2.63;;;;;;;11.58;43.18;92891.94;4899486;29;20932;-87
2024/03/04 00:41:07;;;;;;;2.60;2.00;;;;;;;11.65;42.78;92899.47;4835892;29;20320;-87
2024/03/04 00:44:11;;;;;;;4.13;2.20;;;;;;;11.63;43.17;92893.78;4837133;29;20228;-87
2024/03/04 00:47:06;;;;;;;4.23;1.80;;;;;;;11.56;42.69;92857.91;4824851;29;20258;-87
2024/03/04 00:54:05;;;;;;;2.10;1.70;;;;;;;11.49;42.19;92836.00;5008662;28;20209;-87
2024/03/04 01:01:10;;;;;;;;;;;;;;;;;;;;;
2024/03/04 01:07:48;;;;;;;1.60;1.50;;;;;;;11.61;42.06;92841.72;5001798;28;20214;-87
2024/03/04 01:18:00;;;;;;;1.90;1.70;;;;;;;11.55;42.23;92858.94;4969526;28;20295;-86
2024/03/04 01:21:16;;;;;;;3.60;1.90;;;;;;;11.55;42.10;92858.94;4803158;29;20230;-86
2024/03/04 01:24:49;;;;;;;1.87;1.63;;;;;;;11.62;42.29;92858.72;4904505;28;20217;-86
2024/03/04 01:38:10;;;;;;;2.13;1.93;;;;;;;11.49;42.83;92902.97;4987478;28;20238;-87
2024/03/04 01:58:28;;;;;;;;;;;;;;;;;;;;;
2024/03/04 02:05:02;;;;;;;2.27;1.70;;;;;;;10.81;44.71;93028.00;4931816;29;20208;-86
2024/03/04 02:15:12;;;;;;;2.43;1.80;;;;;;;10.70;44.81;93040.75;4834654;29;20212;-86
2024/03/04 02:49:58;;;;;;;1.70;1.60;;;;;;;10.64;45.40;93075.16;4932178;28;20302;-86
2024/03/04 02:56:10;;;;;;;3.03;1.70;;;;;;;10.49;46.47;93152.13;5010331;28;20209;-87
2024/03/04 02:59:09;;;;;;;2.33;1.60;;;;;;;10.37;46.31;93141.16;5024481;28;20856;-86
2024/03/04 03:11:28;;;;;;;5.20;2.00;;;;;;;10.05;47.03;93200.78;4989406;28;20201;-87
2024/03/04 03:14:30;;;;;;;3.17;1.80;;;;;;;9.98;47.09;93192.44;5016816;28;20198;-87
2024/03/04 03:17:35;;;;;;;3.60;1.90;;;;;;;9.91;47.09;93209.00;5024386;28;20198;-87
2024/03/04 03:33:35;;;;;;;3.53;2.00;;;;;;;10.05;46.68;93207.72;4893325;29;20210;-86
2024/03/04 03:42:58;;;;;;;;;;;;;;;;;;;;;
2024/03/04 03:49:56;;;;;;;1.60;1.50;;;;;;;10.05;46.69;93254.75;4848331;29;20231;-86
2024/03/04 03:53:18;;;;;;;2.63;1.83;;;;;;;10.00;46.69;93264.97;4844320;29;20216;-86
2024/03/04 04:03:08;;;;;;;4.07;1.70;;;;;;;10.13;46.92;93261.34;4798152;29;20687;-87
2024/03/04 04:09:44;;;;;;;2.83;1.63;;;;;;;10.01;46.79;93271.66;4932651;28;20639;-86
2024/03/04 04:16:11;;;;;;;2.10;1.90;;;;;;;9.95;47.69;93321.41;4874872;29;20271;-86
2024/03/04 04:22:59;;;;;;;3.63;2.33;;;;;;;9.82;49.06;93387.69;4805555;29;20286;-85
2024/03/04 04:26:04;;;;;;;4.07;2.00;;;;;;;9.83;49.44;93427.78;4803571;29;20232;-86
2024/03/04 04:29:43;;;;;;;;;;;;;;;;;;;;;
2024/03/04 04:36:15;;;;;;;4.47;3.07;;;;;;;9.79;50.94;93519.22;4844503;29;20219;-86
2024/03/04 04:39:25;;;;;;;3.23;2.60;;;;;;;9.76;51.52;93561.53;4957937;28;20237;-86
2024/03/04 04:45:29;;;;;;;3.47;2.97;;;;;;;9.81;51.90;93600.22;5021919;28;20283;-87
2024/03/04 04:48:18;;;;;;;3.07;2.77;;;;;;;9.83;51.89;93602.53;5049293;28;20201;-87
2024/03/04 04:50:54;;;;;;;5.77;3.27;;;;;;;9.66;52.44;93643.50;5030861;28;20309;-86
2024/03/04 04:53:39;;;;;;;4.87;3.40;;;;;;;9.69;52.63;93654.13;5027487;28;20225;-85
2024/03/04 04:56:07;;;;;;;3.57;2.83;;;;;;;9.70;52.88;93667.75;5031945;28;20204;-85
2024/03/04 04:58:39;;;;;;;4.43;3.40;;;;;;;9.70;53.04;93696.03;5051862;28;20206;-85
2024/03/04 05:01:05;;;;;;;4.77;3.57;;;;;;;9.69;53.19;93709.88;5052209;28;20225;-82
2024/03/04 05:03:32;;;;;;;5.23;3.60;;;;;;;9.50;54.11;93752.00;5052767;28;20561;-85
2024/03/04 05:06:00;;;;;;;4.30;3.00;;;;;;;9.48;54.26;93769.41;5049251;28;20212;-84
2024/03/04 05:08:27;;;;;;;4.10;3.70;;;;;;;9.55;54.12;93780.41;5030609;28;20212;-84
2024/03/04 05:10:55;;;;;;;4.30;3.70;;;;;;;9.46;55.32;93838.97;5032744;28;20206;-85
2024/03/04 05:13:21;;;;;;;5.10;3.70;;;;;;;9.46;55.98;93861.28;5032245;28;20198;-85
2024/03/04 05:15:48;;;;;;;4.60;4.00;;;;;;;9.49;55.87;93886.56;5033080;28;20218;-85
2024/03/04 05:18:24;;;;;;;5.27;4.43;;;;;;;9.40;57.04;93931.50;5029358;28;20198;-85
2024/03/04 05:20:51;;;;;;;5.67;4.20;;;;;;;9.46;57.05;93938.34;5034413;28;20711;-85
2024/03/04 05:23:20;;;;;;;5.80;4.40;;;;;;;9.53;56.54;93949.38;5030863;28;20290;-84
2024/03/04 05:25:47;;;;;;;7.00;5.27;;;;;;;9.56;56.88;93957.44;5027686;28;20218;-84
2024/03/04 05:28:15;;;;;;;5.50;4.73;;;;;;;9.53;57.86;93978.41;5030090;28;20195;-85
2024/03/04 05:34:43;;;;;;;7.03;5.30;;;;;;;9.51;58.79;94025.84;4972882;28;20204;-85
2024/03/04 06:00:51;;;;;;;9.40;7.60;;;;;;;9.45;64.36;94260.44;5011621;23;20233;-86
2024/03/04 06:18:16;;;;;;;11.43;10.23;;;;;;;9.60;66.71;94317.53;5187372;22;20224;-86
2024/03/04 06:20:49;;;;;;;11.40;10.20;;;;;;;9.61;67.05;94335.31;4987268;28;20948;-85
2024/03/04 06:23:20;;;;;;;10.60;9.43;;;;;;;9.60;67.28;94341.44;4982906;28;20203;-86
2024/03/04 06:26:12;;;;;;;12.67;10.93;;;;;;;9.58;67.57;94360.63;5046337;28;20277;-85
2024/03/04 06:28:49;;;;;;;12.10;10.77;;;;;;;9.60;68.25;94381.78;5034874;28;20610;-85
2024/03/04 06:31:42;;;;;;;11.93;10.60;;;;;;;9.49;69.62;94421.69;5049602;28;20197;-85
2024/03/04 06:43:58;;;;;;;12.93;11.63;;;;;;;9.70;70.83;94456.66;4949409;28;20213;-82
2024/03/04 06:46:25;;;;;;;16.07;12.80;;;;;;;9.81;71.37;94484.34;5049641;28;20205;-85
2024/03/04 06:48:53;;;;;;;14.67;12.33;;;;;;;9.83;71.97;94505.47;5042181;28;20218;-85
2024/03/04 06:51:37;;;;;;;16.63;11.70;;;;;;;10.03;73.17;94531.19;5031009;28;20201;-85
2024/03/04 06:54:10;;;;;;;15.17;12.10;;;;;;;10.14;72.89;94519.53;5033187;28;20198;-84
2024/03/04 06:56:49;;;;;;;13.43;11.67;;;;;;;10.23;72.04;94492.63;5030910;28;20197;-85
2024/03/04 07:00:00;;;;;;;14.17;12.33;;;;;;;10.42;72.42;94509.00;5063096;23;20233;-84
2024/03/04 07:02:37;;;;;;;14.53;12.90;;;;;;;10.57;71.19;94478.69;5049364;28;20201;-84
2024/03/04 07:05:06;;;;;;;15.87;12.73;;;;;;;10.59;70.95;94461.25;5046666;28;20201;-84
2024/03/04 07:38:05;;;;;;;17.33;15.37;;;;;;;10.51;71.86;94538.69;4817295;29;20244;-86
2024/03/04 07:40:40;;;;;;;16.23;14.23;;;;;;;10.50;72.80;94553.34;4790732;29;20336;-87
2024/03/04 07:44:07;;;;;;;19.97;14.53;;;;;;;10.44;73.53;94586.78;4864868;29;20203;-86
2024/03/04 08:00:36;;;;;;;25.13;20.67;;;;;;;10.64;73.51;94590.91;4822242;29;20233;-86
2024/03/04 09:07:03;;;;;;;18.60;15.90;;;;;;;10.73;76.65;94702.22;4792151;29;20206;-86
2024/03/04 09:10:12;;;;;;;19.73;16.17;;;;;;;10.83;76.11;94701.78;4815465;29;20272;-85
2024/03/04 09:19:02;;;;;;;18.17;15.87;;;;;;;10.83;76.04;94692.28;4743483;29;20383;-86
2024/03/04 09:25:41;;;;;;;19.50;17.10;;;;;;;10.78;76.48;94711.91;4977314;28;20209;-86
2024/03/04 09:28:28;;;;;;;21.47;16.43;;;;;;;10.85;76.27;94710.13;5025630;28;20264;-85
2024/03/04 09:31:39;;;;;;;18.97;16.93;;;;;;;10.90;75.96;94703.38;5030300;28;20234;-86
2024/03/04 09:34:32;;;;;;;21.77;15.57;;;;;;;10.82;76.37;94710.50;5016993;28;20201;-86
2024/03/04 09:37:01;;;;;;;20.53;15.60;;;;;;;10.84;76.20;94711.91;5027330;28;20198;-85
2024/03/04 10:04:51;;;;;;;19.73;15.10;;;;;;;10.82;76.43;94737.06;4735335;30;20717;-86
2024/03/04 10:21:23;;;;;;;;;;;;;;;;;;;;;
2024/03/04 10:24:38;;;;;;;20.23;15.50;;;;;;;10.86;76.42;94745.19;4929131;29;20204;-84
2024/03/04 10:27:32;;;;;;;19.27;15.07;;;;;;;10.91;76.41;94746.19;4940520;29;20241;-84
2024/03/04 10:30:48;;;;;;;;;;;;;;;;;;;;;
2024/03/04 10:40:13;;;;;;;19.37;15.90;;;;;;;11.06;75.35;94733.88;4983016;28;20557;-84
2024/03/04 10:42:58;;;;;;;19.57;16.07;;;;;;;11.06;75.48;94745.97;5029078;28;20228;-83
2024/03/04 10:55:39;;;;;;;17.60;15.13;;;;;;;10.91;75.65;94737.66;4935360;28;20239;-84
2024/03/04 11:11:26;;;;;;;16.60;14.80;;;;;;;11.00;75.63;94742.38;5045209;23;20240;-84
2024/03/04 11:14:18;;;;;;;17.40;14.37;;;;;;;11.06;74.72;94721.00;5032669;28;20629;-84
2024/03/04 11:49:26;;;;;;;15.03;13.43;;;;;;;11.62;70.25;94580.44;4744807;30;20233;-85
2024/03/04 11:52:32;;;;;;;13.00;11.63;;;;;;;11.71;69.71;94566.31;4775713;29;20212;-84
2024/03/04 11:58:26;;;;;;;16.63;12.63;;;;;;;11.66;69.82;94571.31;4807574;29;20214;-85
2024/03/04 12:04:07;;;;;;;17.07;11.97;;;;;;;11.68;69.12;94554.63;4960668;28;20613;-85
2024/03/04 12:06:58;;;;;;;15.03;11.97;;;;;;;11.54;69.21;94548.00;4890984;29;20215;-85
2024/03/04 12:10:06;;;;;;;13.80;12.30;;;;;;;11.50;69.20;94557.13;4973124;23;20238;-84
2024/03/04 12:12:59;;;;;;;16.60;11.07;;;;;;;11.55;69.36;94548.75;4992169;28;20205;-85
2024/03/04 12:15:25;;;;;;;11.97;10.67;;;;;;;11.55;69.09;94549.53;5019181;28;20198;-85
2024/03/04 12:17:53;;;;;;;13.13;11.73;;;;;;;11.63;68.90;94548.50;5036019;28;20213;-84
2024/03/04 12:20:20;;;;;;;14.50;11.40;;;;;;;11.59;68.92;94550.72;5034613;28;20213;-84
2024/03/04 12:22:47;;;;;;;13.10;11.47;;;;;;;11.61;68.42;94535.03;5034198;28;20206;-84
2024/03/04 12:25:14;;;;;;;13.40;11.47;;;;;;;11.71;68.08;94520.69;5031470;28;20202;-85
2024/03/04 12:27:40;;;;;;;13.07;11.40;;;;;;;11.77;68.13;94516.50;5022286;28;20194;-84
2024/03/04 12:30:11;;;;;;;13.53;11.97;;;;;;;11.82;67.71;94521.84;5012804;28;20249;-85
2024/03/04 12:32:38;;;;;;;15.33;12.50;;;;;;;11.78;68.13;94528.41;5021797;28;20262;-84
2024/03/04 12:35:14;;;;;;;19.87;16.30;;;;;;;11.82;67.85;94527.00;5030021;28;20199;-84
2024/03/04 12:37:42;;;;;;;20.20;17.27;;;;;;;11.86;67.92;94515.25;5024439;28;20252;-85
2024/03/04 12:40:12;;;;;;;15.07;12.73;;;;;;;11.91;67.73;94506.91;5026732;28;20222;-85
2024/03/04 12:42:38;;;;;;;14.37;12.07;;;;;;;12.00;67.21;94495.31;5028450;28;20692;-84
2024/03/04 12:45:08;;;;;;;13.20;11.60;;;;;;;11.98;67.20;94489.56;5031700;28;20264;-85
2024/03/04 12:47:38;;;;;;;13.80;11.73;;;;;;;11.99;67.18;94484.19;5035784;28;20205;-84
2024/03/04 12:50:06;;;;;;;14.87;12.43;;;;;;;12.01;66.82;94484.78;5034610;28;20218;-85
2024/03/04 12:52:33;;;;;;;15.07;12.40;;;;;;;12.07;66.72;94480.56;5035536;28;20190;-84
2024/03/04 12:55:00;;;;;;;17.23;13.00;;;;;;;11.92;67.31;94495.59;5035370;28;20725;-85
2024/03/04 12:57:30;;;;;;;16.43;12.00;;;;;;;11.84;68.17;94522.41;5031412;28;20202;-85
2024/03/04 13:06:17;;;;;;;13.77;11.80;;;;;;;11.99;67.50;94511.78;4892257;29;20984;-85
2024/03/04 13:12:43;;;;;;;15.03;12.60;;;;;;;12.01;68.08;94528.63;5015562;28;20715;-85
2024/03/04 13:15:54;;;;;;;17.30;12.57;;;;;;;12.06;67.28;94507.38;4991309;28;20755;-85
2024/03/04 13:21:16;;;;;;;;;;;;;;;;;;;;;
2024/03/04 13:26:43;;;;;;;18.77;16.17;;;;;;;12.05;67.66;94516.09;5028250;28;20204;-85
2024/03/04 13:29:12;;;;;;;15.20;12.43;;;;;;;12.01;68.03;94520.09;5042047;28;20308;-85
2024/03/04 13:32:03;;;;;;;16.17;13.63;;;;;;;11.96;67.42;94518.16;5041438;28;20293;-85
2024/03/04 13:38:18;;;;;;;15.20;12.13;;;;;;;11.85;68.00;94518.06;4947412;28;20223;-85
2024/03/04 13:44:54;;;;;;;14.70;11.43;;;;;;;11.82;67.48;94503.78;5009109;28;20285;-86
2024/03/04 13:50:17;;;;;;;15.23;12.90;;;;;;;11.79;67.25;94506.78;5012737;28;20223;-83
2024/03/04 14:02:34;;;;;;;14.90;12.50;;;;;;;12.02;67.09;94495.88;4831087;29;20239;-85
2024/03/04 14:11:33;;;;;;;11.77;10.50;;;;;;;12.03;66.93;94471.66;4985373;28;20207;-85
2024/03/04 14:14:33;;;;;;;;;;;;;;;;;;;;;
2024/03/04 14:17:39;;;;;;;13.90;11.47;;;;;;;12.00;66.03;94438.56;5026939;28;20220;-85
2024/03/04 14:23:31;;;;;;;14.40;12.07;;;;;;;12.07;66.09;94450.41;5014703;28;20230;-86
2024/03/04 14:29:32;;;;;;;14.93;12.60;;;;;;;12.03;66.60;94476.81;5018977;28;20769;-86
2024/03/04 14:42:07;;;;;;;14.30;11.33;;;;;;;12.07;66.86;94496.84;5012486;28;20297;-86
2024/03/04 15:10:25;;;;;;;16.80;15.07;;;;;;;12.07;65.54;94442.66;4911352;29;20459;-85
2024/03/04 15:13:00;;;;;;;14.03;11.27;;;;;;;12.00;65.60;94454.03;4925652;29;20212;-86
2024/03/04 15:19:12;;;;;;;13.03;9.90;;;;;;;11.90;65.63;94449.38;4951415;29;20200;-85
2024/03/04 15:25:06;;;;;;;11.53;9.97;;;;;;;11.94;65.80;94468.56;4932158;29;20743;-85
2024/03/04 15:31:30;;;;;;;11.73;10.07;;;;;;;11.87;66.82;94500.56;5015814;28;20258;-85
2024/03/04 15:35:16;;;;;;;11.73;9.97;;;;;;;11.88;67.39;94523.59;5018405;28;20210;-85
2024/03/04 15:38:11;;;;;;;12.33;10.47;;;;;;;11.79;67.67;94542.09;4964016;28;20247;-84
2024/03/04 15:40:37;;;;;;;13.67;10.07;;;;;;;11.77;68.09;94552.59;5052957;28;20229;-83
2024/03/04 15:43:04;;;;;;;12.50;10.03;;;;;;;11.89;72.58;94731.50;5052784;28;20231;-84
2024/03/04 15:45:31;;;;;;;34.23;28.23;;;;;;;12.05;74.43;94769.72;5053188;28;20198;-84
2024/03/04 15:47:57;;;;;;;16.57;10.37;;;;;;;12.26;74.64;94776.38;5050567;28;20197;-83
2024/03/04 15:50:28;;;;;;;13.27;10.93;;;;;;;12.28;70.56;94647.13;5031007;28;20308;-82
2024/03/04 15:52:57;;;;;;;12.50;9.00;;;;;;;12.35;74.01;94745.94;5034029;28;20201;-83
2024/03/04 15:55:25;;;;;;;11.57;8.30;;;;;;;12.52;75.50;94801.25;5049955;28;20590;-83
2024/03/04 15:57:57;;;;;;;11.23;9.37;;;;;;;12.60;70.71;94665.94;5050042;28;20221;-83
2024/03/04 16:00:29;;;;;;;12.37;9.23;;;;;;;12.69;71.60;94685.34;5050283;28;20231;-82
2024/03/04 16:02:59;;;;;;;10.00;8.47;;;;;;;12.74;71.21;94693.22;5050183;28;20218;-82
2024/03/04 16:05:30;;;;;;;12.57;10.40;;;;;;;12.71;66.88;94518.03;5051684;28;20201;-84
2024/03/04 16:07:57;;;;;;;15.17;10.70;;;;;;;12.62;65.78;94454.78;5054851;28;20240;-84
2024/03/04 16:10:29;;;;;;;12.67;10.90;;;;;;;12.27;65.64;94455.38;5051037;28;20245;-83
2024/03/04 16:12:59;;;;;;;13.10;10.70;;;;;;;12.18;66.50;94484.22;5024207;28;20747;-84
2024/03/04 16:15:43;;;;;;;11.40;10.17;;;;;;;12.13;66.46;94492.59;5014984;28;20290;-84
2024/03/04 16:18:21;;;;;;;11.97;9.90;;;;;;;12.11;66.56;94497.22;5016498;28;20230;-85
2024/03/04 16:20:53;;;;;;;13.60;10.63;;;;;;;12.06;66.40;94500.41;5015557;28;20226;-83
2024/03/04 16:23:24;;;;;;;15.13;10.73;;;;;;;11.99;66.79;94510.00;5026870;28;20288;-84
2024/03/04 16:26:01;;;;;;;12.87;9.93;;;;;;;11.93;67.07;94525.53;5044952;28;20201;-85
2024/03/04 16:28:27;;;;;;;11.20;10.00;;;;;;;11.91;67.01;94530.13;5057184;28;20662;-83
2024/03/04 16:30:54;;;;;;;14.67;10.47;;;;;;;11.88;67.78;94553.75;5055033;28;20221;-84
2024/03/04 16:33:20;;;;;;;12.63;10.63;;;;;;;11.80;67.82;94559.94;5054000;28;20208;-84
2024/03/04 16:35:47;;;;;;;12.33;10.87;;;;;;;11.80;68.08;94567.66;5054567;28;20205;-84
2024/03/04 16:38:15;;;;;;;11.17;9.97;;;;;;;11.80;67.87;94577.19;5054673;28;20202;-83
2024/03/04 16:40:43;;;;;;;14.20;10.50;;;;;;;11.68;68.52;94590.72;5053974;28;20308;-85
2024/03/04 16:43:11;;;;;;;12.07;9.77;;;;;;;11.63;68.99;94607.81;5055761;28;20260;-84
2024/03/04 16:45:37;;;;;;;13.67;10.43;;;;;;;11.69;68.39;94599.25;5056906;28;20208;-83
2024/03/04 16:48:05;;;;;;;12.77;10.97;;;;;;;11.72;68.24;94591.91;5055355;28;20201;-84
2024/03/04 16:50:32;;;;;;;11.83;10.07;;;;;;;11.71;68.78;94610.16;5039866;28;20278;-84
2024/03/04 16:53:01;;;;;;;13.87;10.17;;;;;;;11.74;68.80;94602.78;5038051;28;20202;-84
2024/03/04 16:55:28;;;;;;;14.17;10.80;;;;;;;11.73;68.77;94614.13;5036945;28;20205;-84
2024/03/04 16:57:54;;;;;;;13.50;10.17;;;;;;;11.78;68.62;94621.25;5044763;28;20224;-84
2024/03/04 17:00:23;;;;;;;13.77;10.00;;;;;;;11.79;68.66;94612.50;5057733;28;20321;-84
2024/03/04 17:02:49;;;;;;;13.23;10.27;;;;;;;11.70;69.19;94631.78;5057020;28;20287;-84
2024/03/04 17:05:16;;;;;;;12.77;10.70;;;;;;;11.66;69.24;94641.72;5058453;28;20209;-83
2024/03/04 17:07:43;;;;;;;13.13;11.07;;;;;;;11.48;69.91;94658.84;5057728;28;20205;-84
2024/03/04 17:10:11;;;;;;;13.43;10.80;;;;;;;11.48;70.04;94661.44;5058616;28;20256;-84
2024/03/04 17:12:37;;;;;;;12.67;9.93;;;;;;;11.51;69.63;94663.59;5032746;28;20190;-84
2024/03/04 17:15:05;;;;;;;13.30;9.70;;;;;;;11.50;69.58;94654.28;5051035;28;20198;-84
2024/03/04 17:17:33;;;;;;;13.03;10.10;;;;;;;11.46;69.19;94648.75;5055119;28;20670;-84
2024/03/04 17:19:59;;;;;;;13.70;10.20;;;;;;;11.48;68.85;94649.34;5028099;28;20233;-83
2024/03/04 17:22:26;;;;;;;13.37;10.00;;;;;;;11.44;69.59;94658.47;5036188;28;20229;-83
2024/03/04 17:24:52;;;;;;;12.87;10.27;;;;;;;11.50;69.18;94643.97;5034773;28;20703;-84
2024/03/04 17:27:19;;;;;;;13.30;9.80;;;;;;;11.53;69.10;94641.78;5036185;28;20217;-84
2024/03/04 17:29:45;;;;;;;13.57;10.43;;;;;;;11.57;69.20;94649.88;5040211;28;20217;-83
2024/03/04 17:32:12;;;;;;;13.67;11.13;;;;;;;11.58;68.65;94648.88;5045266;28;20209;-84
2024/03/04 17:34:44;;;;;;;12.37;10.00;;;;;;;11.61;69.07;94651.06;5054848;28;20197;-84
2024/03/04 17:37:10;;;;;;;12.80;9.80;;;;;;;11.62;68.79;94653.44;5055514;28;20220;-84
2024/03/04 17:39:37;;;;;;;13.37;10.80;;;;;;;11.61;68.69;94663.94;5054892;28;20695;-84
2024/03/04 17:42:04;;;;;;;12.50;11.00;;;;;;;11.61;68.94;94661.38;5056337;28;20212;-85
2024/03/04 17:44:31;;;;;;;13.03;11.20;;;;;;;11.60;69.13;94659.78;5055073;28;20284;-84
2024/03/04 17:46:57;;;;;;;14.00;10.63;;;;;;;11.59;69.02;94673.66;5051762;28;20575;-84
2024/03/04 17:49:23;;;;;;;15.33;11.40;;;;;;;11.60;69.27;94677.81;5031174;28;20225;-84
2024/03/04 17:51:53;;;;;;;14.80;11.10;;;;;;;11.59;69.60;94689.94;5034560;28;20555;-83
2024/03/04 17:54:19;;;;;;;14.13;11.53;;;;;;;11.54;70.18;94709.59;5037070;28;20225;-84
2024/03/04 17:56:46;;;;;;;15.20;12.13;;;;;;;11.54;69.91;94712.97;5034610;28;20206;-84
2024/03/04 17:59:13;;;;;;;15.93;11.57;;;;;;;11.56;70.34;94721.25;5040587;28;20222;-84
2024/03/04 18:01:39;;;;;;;17.13;13.30;;;;;;;11.49;71.02;94745.50;5033758;28;20210;-84
2024/03/04 18:04:08;;;;;;;21.00;18.23;;;;;;;11.51;70.88;94751.25;5053414;28;20237;-84
2024/03/04 18:06:37;;;;;;;29.40;25.00;;;;;;;11.40;72.29;94783.56;5053395;28;20198;-84
2024/03/04 18:09:05;;;;;;;22.20;16.90;;;;;;;11.44;71.96;94782.19;5054085;28;20287;-84
2024/03/04 18:11:32;;;;;;;27.73;19.97;;;;;;;11.44;72.26;94789.91;5044808;28;20222;-84
2024/03/04 18:14:02;;;;;;;16.33;13.27;;;;;;;11.46;72.18;94784.56;5014715;28;20249;-84
2024/03/04 18:16:29;;;;;;;18.77;14.63;;;;;;;11.48;72.23;94785.16;5027304;28;20692;-84
2024/03/04 18:18:57;;;;;;;18.13;14.30;;;;;;;11.49;71.93;94787.53;5039526;28;20190;-85
2024/03/04 18:21:24;;;;;;;16.43;13.27;;;;;;;11.52;71.89;94791.50;5052069;28;20209;-84
2024/03/04 18:23:50;;;;;;;16.93;13.03;;;;;;;11.53;71.99;94786.13;5051831;28;20225;-85
2024/03/04 18:26:18;;;;;;;16.70;13.73;;;;;;;11.52;71.91;94788.91;5052292;28;20224;-84
2024/03/04 18:28:47;;;;;;;18.07;14.13;;;;;;;11.51;71.90;94787.34;5052260;28;20206;-84
2024/03/04 18:31:14;;;;;;;32.40;27.17;;;;;;;11.49;72.51;94813.31;5050861;28;20211;-84
2024/03/04 18:33:40;;;;;;;27.23;21.77;;;;;;;11.51;72.38;94820.84;5047086;28;20208;-84
2024/03/04 18:36:07;;;;;;;24.23;18.57;;;;;;;11.53;72.57;94816.28;5051195;28;20213;-83
2024/03/04 18:38:33;;;;;;;17.87;15.90;;;;;;;11.53;75.10;94893.63;5052002;28;20232;-85
2024/03/04 18:41:00;;;;;;;19.77;14.90;;;;;;;11.56;74.42;94872.56;5051872;28;20233;-85
2024/03/04 18:43:28;;;;;;;19.80;14.50;;;;;;;11.58;73.54;94835.28;5051812;28;20221;-84
2024/03/04 18:45:55;;;;;;;17.93;13.93;;;;;;;11.51;73.24;94829.38;5051405;28;20763;-84
2024/03/04 18:48:21;;;;;;;17.47;14.17;;;;;;;11.50;73.20;94834.72;5047067;28;20216;-84
2024/03/04 18:50:48;;;;;;;18.63;14.97;;;;;;;11.49;73.04;94835.72;5037971;28;20217;-84
2024/03/04 18:53:14;;;;;;;18.37;14.60;;;;;;;11.45;73.67;94834.53;5050431;28;20197;-84
2024/03/04 18:55:41;;;;;;;19.77;15.07;;;;;;;11.46;73.48;94841.25;5051564;28;20285;-84
2024/03/04 18:58:09;;;;;;;18.57;14.50;;;;;;;11.45;73.94;94850.78;5051306;28;20208;-83
2024/03/04 19:00:36;;;;;;;18.40;14.97;;;;;;;11.49;73.38;94840.88;5051587;28;20229;-84
2024/03/04 19:03:04;;;;;;;18.57;14.80;;;;;;;11.46;73.80;94849.00;5051878;28;20232;-84
2024/03/04 19:05:31;;;;;;;20.00;15.30;;;;;;;11.42;73.84;94866.63;5051270;28;20288;-84
2024/03/04 19:07:57;;;;;;;19.90;15.10;;;;;;;11.43;74.00;94853.56;5047505;28;20255;-84
2024/03/04 19:10:24;;;;;;;17.90;14.80;;;;;;;11.46;74.22;94861.88;5045690;28;20226;-83
2024/03/04 19:12:51;;;;;;;19.73;15.43;;;;;;;11.44;74.07;94867.25;5025523;28;20194;-84
2024/03/04 19:15:17;;;;;;;20.90;15.90;;;;;;;11.45;73.99;94865.44;5011544;28;20206;-84
2024/03/04 19:17:45;;;;;;;19.07;15.07;;;;;;;11.48;74.13;94867.63;5012068;28;20205;-83
2024/03/04 19:20:12;;;;;;;18.13;14.60;;;;;;;11.43;74.44;94875.97;5011397;28;20218;-83
2024/03/04 19:22:39;;;;;;;20.83;15.73;;;;;;;11.39;74.56;94885.88;5021163;28;20227;-83
2024/03/04 19:25:07;;;;;;;31.37;26.13;;;;;;;11.32;76.52;94934.06;5051745;28;20232;-84
2024/03/04 19:27:34;;;;;;;24.43;19.13;;;;;;;11.35;76.15;94927.72;5051014;28;20201;-83
2024/03/04 19:30:01;;;;;;;24.67;18.17;;;;;;;11.38;75.43;94907.47;5033886;28;20222;-84
2024/03/04 19:32:28;;;;;;;22.20;17.70;;;;;;;11.43;75.18;94904.31;5031040;28;20252;-84
2024/03/04 19:34:56;;;;;;;24.13;18.23;;;;;;;11.47;75.11;94891.81;5026082;28;20630;-83
2024/03/04 19:37:22;;;;;;;22.73;17.83;;;;;;;11.41;75.26;94904.50;5019468;28;20199;-84
2024/03/04 19:39:49;;;;;;;26.20;19.47;;;;;;;11.34;75.49;94908.09;5030929;28;20222;-84
2024/03/04 19:42:20;;;;;;;22.50;17.77;;;;;;;11.37;75.49;94913.63;5019679;28;20759;-84
2024/03/04 19:44:47;;;;;;;22.70;18.17;;;;;;;11.36;75.38;94901.72;5022243;28;20303;-84
2024/03/04 19:47:13;;;;;;;23.03;17.47;;;;;;;11.33;75.83;94916.81;5031531;28;20213;-84
2024/03/04 19:49:41;;;;;;;21.30;16.93;;;;;;;11.31;75.65;94914.44;5015795;28;20223;-83
2024/03/04 19:52:12;;;;;;;23.87;18.00;;;;;;;11.29;76.30;94920.75;5018909;28;20277;-83
2024/03/04 19:54:39;;;;;;;23.13;17.17;;;;;;;11.32;76.14;94922.94;5024463;28;20202;-84
2024/03/04 19:57:07;;;;;;;19.53;16.37;;;;;;;11.37;75.67;94916.19;5032208;28;20198;-84
2024/03/04 19:59:33;;;;;;;19.63;16.33;;;;;;;11.36;75.72;94911.25;5021902;28;20246;-83
2024/03/04 20:02:00;;;;;;;20.73;16.87;;;;;;;11.28;76.21;94914.03;5020166;28;20201;-84
2024/03/04 20:04:27;;;;;;;22.97;17.17;;;;;;;11.14;77.33;94944.13;5021575;28;20222;-83
2024/03/04 20:06:53;;;;;;;19.17;15.10;;;;;;;11.18;76.53;94922.13;5021322;28;20559;-84
2024/03/04 20:09:21;;;;;;;21.20;16.30;;;;;;;11.22;76.63;94923.31;5020151;28;20220;-83
2024/03/04 20:11:48;;;;;;;20.17;16.13;;;;;;;11.25;76.09;94910.06;5029474;28;20232;-83
2024/03/04 20:14:14;;;;;;;20.90;16.67;;;;;;;11.25;76.48;94910.06;5021810;28;20201;-83
2024/03/04 20:16:42;;;;;;;21.30;16.33;;;;;;;11.23;76.23;94900.94;5021845;28;20202;-84
2024/03/04 20:19:09;;;;;;;21.03;17.03;;;;;;;11.15;76.64;94906.28;5019940;28;20225;-84
2024/03/04 20:21:36;;;;;;;24.67;18.13;;;;;;;11.04;76.84;94918.75;5020569;28;20202;-84
2024/03/04 20:24:02;;;;;;;22.07;17.43;;;;;;;10.93;77.56;94939.13;5021038;28;20219;-83
2024/03/04 20:26:30;;;;;;;21.53;17.43;;;;;;;10.86;78.09;94941.69;5018802;28;20207;-84
2024/03/04 20:28:57;;;;;;;22.13;16.73;;;;;;;10.86;77.64;94946.03;5032493;28;20202;-83
2024/03/04 20:31:23;;;;;;;22.70;18.07;;;;;;;10.85;77.97;94950.38;5022045;28;20217;-84
2024/03/04 20:33:50;;;;;;;23.63;18.73;;;;;;;10.90;77.55;94940.31;5018506;28;20253;-85
2024/03/04 20:36:18;;;;;;;23.40;18.13;;;;;;;10.89;77.73;94938.72;5019986;28;20194;-83
2024/03/04 20:38:44;;;;;;;23.13;18.57;;;;;;;10.86;77.65;94946.03;5020957;28;20202;-84
2024/03/04 20:41:10;;;;;;;26.77;19.37;;;;;;;10.85;77.52;94937.50;5019624;28;20207;-85
2024/03/04 20:43:38;;;;;;;23.13;18.40;;;;;;;10.86;77.58;94940.88;5022694;28;20222;-84
2024/03/04 20:46:07;;;;;;;23.20;19.10;;;;;;;10.75;77.90;94944.03;5050863;28;20205;-82
2024/03/04 20:48:35;;;;;;;26.50;18.60;;;;;;;10.76;77.60;94951.56;5041010;28;20202;-83
2024/03/04 20:51:01;;;;;;;23.07;17.33;;;;;;;10.77;77.84;94948.00;5049128;28;20235;-84
2024/03/04 20:53:28;;;;;;;25.40;19.27;;;;;;;10.75;77.55;94944.03;5052139;28;20201;-84
2024/03/04 20:55:55;;;;;;;24.83;18.67;;;;;;;10.76;77.46;94945.63;5054183;28;20209;-84
2024/03/04 20:58:21;;;;;;;26.30;18.53;;;;;;;10.71;77.44;94949.56;5053823;28;20251;-83
2024/03/04 21:00:49;;;;;;;25.47;18.20;;;;;;;10.66;77.33;94936.47;5054494;28;20229;-84
2024/03/04 21:03:16;;;;;;;24.53;18.17;;;;;;;10.67;77.39;94943.19;5048360;28;20260;-83
2024/03/04 21:05:42;;;;;;;22.20;17.73;;;;;;;10.59;77.59;94942.56;5043587;28;20213;-84
2024/03/04 21:08:09;;;;;;;25.50;19.00;;;;;;;10.53;77.93;94951.88;5035148;28;20206;-84
2024/03/04 21:10:36;;;;;;;25.37;18.93;;;;;;;10.48;78.59;94966.28;5033811;28;20636;-83
2024/03/04 21:13:02;;;;;;;25.13;19.63;;;;;;;10.47;78.48;94972.41;5016973;28;20590;-84
2024/03/04 21:15:28;;;;;;;27.23;19.33;;;;;;;10.44;79.00;94981.31;5014090;28;20191;-84
2024/03/04 21:17:56;;;;;;;25.27;19.80;;;;;;;10.47;79.03;94986.06;5014763;28;20214;-84
2024/03/04 21:20:24;;;;;;;26.23;19.33;;;;;;;10.41;79.52;94994.53;5034338;28;20702;-83
2024/03/04 21:22:52;;;;;;;26.00;19.53;;;;;;;10.40;80.02;95000.69;5053365;28;20241;-84
2024/03/04 21:25:18;;;;;;;25.03;18.83;;;;;;;10.49;79.67;95002.13;5053068;28;20217;-83